• Join FlightAware (Why Join?)
  • Login
  • US Flag GB Flag 
03:36 EST


 

Airport Tracker/Info


-or-


 

Live Flight TrackerFlight Track Log ✈ JBU1329 ✈ 19-May-2013 ✈ KBOS - KBWI

Flight Track Log - Related Links

Times and Time Zones

All times are in EDT time to prevent confusion due to time zone crossing. See the JBU1329 flight status page for this flight to view local times or setup timezone preferences in your user account.

Time Position Orientation Groundspeed Altitude Reporting Facility
EDT Latitude Longitude Course Direction KTS MPH feet Rate Location/Type
09:11 42.3667 -70.9833 262° West 165 190 600  Level KA90
09:13 42.3906 -70.7956 80° East 240 276 5,700 2,464 Climbing Boston Center
09:14 42.2805 -70.7459 228° Southwest  Level FlightAware Approximate
09:14 42.3417 -70.7267 134° Southeast 240 276 9,100  Level Boston Center
09:15 42.2180 -70.8526 240° Southwest  Level FlightAware Approximate
09:15 42.2606 -70.7486 191° South 211 243 10,900  Level Boston Center
09:16 42.1824 -70.9765 262° West  Level FlightAware Approximate
09:16 42.2311 -70.8728 252° West 208 239 13,800  Level Boston Center
09:17 42.2139 -70.9881 259° West 301 346 16,200 2,250 Climbing Boston Center
09:18 42.1928 -71.1286 259° West 343 395 18,300 2,100 Climbing Boston Center
09:19 42.1794 -71.2550 262° West 366 421 20,400 2,050 Climbing Boston Center
09:20 42.1581 -71.3897 258° West 377 434 22,400 1,800 Climbing Boston Center
09:21 42.1236 -71.5275 251° West 377 434 24,000 1,600 Climbing Boston Center
09:22 42.0603 -71.6739 240° Southwest 394 453 25,600 1,450 Climbing Boston Center
09:23 42.0028 -71.8142 241° Southwest 413 475 26,900 1,400 Climbing Boston Center
09:24 41.9472 -71.9544 242° Southwest 425 489 28,400 1,800 Climbing Boston Center
09:25 41.8892 -72.0942 241° Southwest 430 495 30,500 1,750 Climbing Boston Center
09:26 41.8356 -72.2311 242° Southwest 430 495 31,900 750 Climbing Boston Center
09:27 41.7814 -72.3706 243° Southwest 425 489 32,000 50 Climbing Boston Center
09:28 41.7231 -72.5125 241° Southwest 431 496 32,000  Level Boston Center
09:29 41.6644 -72.6542 241° Southwest 436 502 32,000  Level Boston Center
09:30 41.6036 -72.8008 241° Southwest 436 502 32,000  Level Boston Center
09:31 41.5469 -72.9450 242° Southwest 436 502 32,000  Level Boston Center
09:32 41.4961 -73.0692 241° Southwest 436 502 32,000  Level Boston Center
09:33 41.4350 -73.2097 240° Southwest 436 502 32,000  Level Boston Center
09:34 41.3567 -73.3611 235° Southwest 447 514 32,000  Level Boston Center
09:37 41.2103 -73.6367 235° Southwest 440 506 32,000  Level New York Center
09:38 41.1339 -73.7739 234° Southwest 450 518 32,000  Level New York Center
09:39 41.0636 -73.9083 235° Southwest 455 524 32,000  Level New York Center
09:40 40.9914 -74.0425 235° Southwest 455 524 32,000 -454 Level New York Center
09:41 40.9167 -74.1789 234° Southwest 460 529 31,100 -1,450 Descending New York Center
09:42 40.8397 -74.3094 232° Southwest 460 529 29,100 -1,563 Descending New York Center
09:43 40.7694 -74.4344 233° Southwest 454 522 28,000 -857 Descending New York Center
09:44 40.6947 -74.5564 231° Southwest 449 517 27,400 -984 Descending New York Center
09:45 40.6197 -74.6808 232° Southwest 444 511 26,000 -1,388 Descending New York Center
09:46 40.5472 -74.7967 231° Southwest 431 496 24,600 -1,424 Descending New York Center
09:47 40.4706 -74.9014 226° Southwest 416 479 23,200 -814 Descending New York Center
09:48 40.3981 -75.0033 227° Southwest 399 459 23,000 -99 Descending New York Center
09:49 40.3256 -75.1078 228° Southwest 394 453 23,000 -590 Level New York Center
09:50 40.2397 -75.2275 227° Southwest 394 453 21,800 -1,400 Descending New York Center
09:51 40.1692 -75.3289 228° Southwest 401 461 20,200 -1,500 Descending New York Center
09:52 40.0989 -75.4219 225° Southwest 401 461 18,800 -1,100 Descending New York Center
09:53 40.0217 -75.5281 226° Southwest 388 447 18,000 -450 Descending New York Center
09:54 39.9578 -75.6158 226° Southwest 378 435 17,900 -595 Descending New York Center
09:55 39.8883 -75.7300 232° Southwest 378 435 16,800 -1,220 Descending New York Center
09:56 39.8386 -75.8239 235° Southwest 364 419 15,500 -1,382 Descending New York Center
09:57 39.7333 -76.0167 235° Southwest 345 397 13,000 -1,078 Descending Potomac TRACON
09:58 39.6833 -76.1167 237° Southwest 330 380 12,500 -783 Descending Potomac TRACON
09:59 39.6500 -76.2000 243° Southwest 305 351 11,500 -1,200 Descending Potomac TRACON
10:00 39.6167 -76.3000 247° West 277 319 10,200 -1,474 Descending Potomac TRACON
10:01 39.6000 -76.3833 255° West 272 313 8,700 -1,722 Descending Potomac TRACON
10:02 39.5667 -76.4667 243° Southwest 269 310 7,100 -1,368 Descending Potomac TRACON
10:03 39.5500 -76.5500 255° West 254 292 6,100 -1,350 Descending Potomac TRACON
10:04 39.5167 -76.6333 243° Southwest 219 252 4,400 -1,263 Descending Potomac TRACON
10:05 39.5000 -76.7000 252° West 215 247 3,700 -737 Descending Potomac TRACON
10:06 39.4833 -76.7667 252° West 222 255 3,000 -700 Descending Potomac TRACON